sensor_id;sensor_type;location;lat;lon;timestamp;pressure;altitude;pressure_sealevel;temperature;humidity
64460;BME280;50828;53.756;21.140;2023-07-09T00:00:44;100386.36;;;15.36;55.15
64460;BME280;50828;53.756;21.140;2023-07-09T00:05:53;100385.28;;;15.30;55.47
64460;BME280;50828;53.756;21.140;2023-07-09T00:11:00;100387.22;;;15.23;55.62
64460;BME280;50828;53.756;21.140;2023-07-09T00:16:14;100382.61;;;15.16;55.50
64460;BME280;50828;53.756;21.140;2023-07-09T00:21:25;100378.89;;;15.10;55.88
64460;BME280;50828;53.756;21.140;2023-07-09T00:26:32;100379.77;;;15.03;55.86
64460;BME280;50828;53.756;21.140;2023-07-09T00:31:40;100380.88;;;14.97;55.97
64460;BME280;50828;53.756;21.140;2023-07-09T00:36:48;100376.25;;;14.90;56.13
64460;BME280;50828;53.756;21.140;2023-07-09T00:41:56;100376.27;;;14.83;56.22
64460;BME280;50828;53.756;21.140;2023-07-09T00:47:20;100382.50;;;14.79;56.22
64460;BME280;50828;53.756;21.140;2023-07-09T00:52:34;100385.92;;;14.72;56.21
64460;BME280;50828;53.756;21.140;2023-07-09T00:57:47;100385.39;;;14.62;55.97
64460;BME280;50828;53.756;21.140;2023-07-09T01:03:02;100384.67;;;14.51;56.21
64460;BME280;50828;53.756;21.140;2023-07-09T01:08:13;100379.17;;;14.41;56.37
64460;BME280;50828;53.756;21.140;2023-07-09T01:13:23;100379.40;;;14.30;56.06
64460;BME280;50828;53.756;21.140;2023-07-09T01:18:32;100384.21;;;14.19;56.07
64460;BME280;50828;53.756;21.140;2023-07-09T01:23:39;100387.92;;;14.08;56.04
64460;BME280;50828;53.756;21.140;2023-07-09T01:28:49;100385.34;;;13.96;56.15
64460;BME280;50828;53.756;21.140;2023-07-09T01:33:57;100386.92;;;13.86;56.24
64460;BME280;50828;53.756;21.140;2023-07-09T01:39:05;100391.14;;;13.75;56.34
64460;BME280;50828;53.756;21.140;2023-07-09T01:44:12;100395.96;;;13.63;56.14
64460;BME280;50828;53.756;21.140;2023-07-09T01:49:20;100395.95;;;13.53;56.19
64460;BME280;50828;53.756;21.140;2023-07-09T01:54:28;100390.63;;;13.42;56.45
64460;BME280;50828;53.756;21.140;2023-07-09T01:59:36;100397.65;;;13.31;56.65
64460;BME280;50828;53.756;21.140;2023-07-09T02:04:48;100398.12;;;13.21;56.76
64460;BME280;50828;53.756;21.140;2023-07-09T02:09:55;100398.20;;;13.12;56.73
64460;BME280;50828;53.756;21.140;2023-07-09T02:15:05;100402.09;;;13.04;56.66
64460;BME280;50828;53.756;21.140;2023-07-09T02:20:13;100406.85;;;12.92;57.17
64460;BME280;50828;53.756;21.140;2023-07-09T02:25:21;100419.29;;;12.87;57.34
64460;BME280;50828;53.756;21.140;2023-07-09T02:30:28;100424.20;;;12.80;57.47
64460;BME280;50828;53.756;21.140;2023-07-09T02:35:37;100419.83;;;12.75;57.45
64460;BME280;50828;53.756;21.140;2023-07-09T02:40:45;100417.83;;;12.68;57.65
64460;BME280;50828;53.756;21.140;2023-07-09T02:45:53;100421.89;;;12.64;58.15
64460;BME280;50828;53.756;21.140;2023-07-09T02:51:01;100421.74;;;12.59;58.03
64460;BME280;50828;53.756;21.140;2023-07-09T02:56:08;100422.67;;;12.54;58.39
64460;BME280;50828;53.756;21.140;2023-07-09T03:01:16;100433.37;;;12.52;58.47
64460;BME280;50828;53.756;21.140;2023-07-09T03:06:25;100430.09;;;12.46;58.54
64460;BME280;50828;53.756;21.140;2023-07-09T03:11:33;100439.67;;;12.45;59.01
64460;BME280;50828;53.756;21.140;2023-07-09T03:16:41;100449.13;;;12.43;59.36
64460;BME280;50828;53.756;21.140;2023-07-09T03:21:49;100453.00;;;12.39;59.92
64460;BME280;50828;53.756;21.140;2023-07-09T03:26:58;100452.85;;;12.30;60.60
64460;BME280;50828;53.756;21.140;2023-07-09T03:32:07;100457.98;;;12.25;61.45
64460;BME280;50828;53.756;21.140;2023-07-09T03:37:15;100456.76;;;12.21;61.97
64460;BME280;50828;53.756;21.140;2023-07-09T03:42:23;100454.45;;;12.21;62.46
64460;BME280;50828;53.756;21.140;2023-07-09T03:47:31;100456.55;;;12.25;62.65
64460;BME280;50828;53.756;21.140;2023-07-09T03:52:38;100454.73;;;12.31;63.20
64460;BME280;50828;53.756;21.140;2023-07-09T03:57:46;100458.99;;;12.39;63.66
64460;BME280;50828;53.756;21.140;2023-07-09T04:02:54;100458.86;;;12.50;64.02
64460;BME280;50828;53.756;21.140;2023-07-09T04:08:02;100463.00;;;12.65;64.19
64460;BME280;50828;53.756;21.140;2023-07-09T04:13:10;100466.91;;;12.81;64.68
64460;BME280;50828;53.756;21.140;2023-07-09T04:18:18;100466.80;;;12.96;64.95
64460;BME280;50828;53.756;21.140;2023-07-09T04:23:25;100466.07;;;13.12;64.95
64460;BME280;50828;53.756;21.140;2023-07-09T04:28:33;100471.40;;;13.28;64.70
64460;BME280;50828;53.756;21.140;2023-07-09T04:33:40;100471.23;;;13.43;64.92
64460;BME280;50828;53.756;21.140;2023-07-09T04:38:48;100468.45;;;13.61;65.21
64460;BME280;50828;53.756;21.140;2023-07-09T04:43:56;100469.43;;;13.78;65.23
64460;BME280;50828;53.756;21.140;2023-07-09T04:49:05;100467.94;;;13.94;65.29
64460;BME280;50828;53.756;21.140;2023-07-09T04:54:13;100473.27;;;14.08;65.41
64460;BME280;50828;53.756;21.140;2023-07-09T04:59:21;100472.02;;;14.23;65.34
64460;BME280;50828;53.756;21.140;2023-07-09T05:04:29;100468.94;;;14.35;65.72
64460;BME280;50828;53.756;21.140;2023-07-09T05:09:37;100467.65;;;14.50;65.72
64460;BME280;50828;53.756;21.140;2023-07-09T05:14:44;100468.98;;;14.62;65.60
64460;BME280;50828;53.756;21.140;2023-07-09T05:19:52;100473.84;;;14.75;65.67
64460;BME280;50828;53.756;21.140;2023-07-09T05:25:00;100474.77;;;14.88;65.84
64460;BME280;50828;53.756;21.140;2023-07-09T05:30:09;100472.14;;;15.05;66.11
64460;BME280;50828;53.756;21.140;2023-07-09T05:35:17;100471.24;;;15.21;66.02
64460;BME280;50828;53.756;21.140;2023-07-09T05:40:24;100464.69;;;15.41;65.93
64460;BME280;50828;53.756;21.140;2023-07-09T05:45:32;100466.47;;;15.63;66.00
64460;BME280;50828;53.756;21.140;2023-07-09T05:50:40;100465.57;;;15.93;65.93
64460;BME280;50828;53.756;21.140;2023-07-09T05:55:47;100470.44;;;16.28;65.84
64460;BME280;50828;53.756;21.140;2023-07-09T06:00:56;100473.77;;;16.72;65.53
64460;BME280;50828;53.756;21.140;2023-07-09T06:06:03;100466.80;;;17.16;65.27
64460;BME280;50828;53.756;21.140;2023-07-09T06:11:12;100456.02;;;17.55;65.01
64460;BME280;50828;53.756;21.140;2023-07-09T06:16:19;100461.31;;;17.92;64.51
64460;BME280;50828;53.756;21.140;2023-07-09T06:21:27;100469.17;;;18.16;64.17
64460;BME280;50828;53.756;21.140;2023-07-09T06:26:35;100465.14;;;18.37;63.87
64460;BME280;50828;53.756;21.140;2023-07-09T06:31:43;100464.02;;;18.53;63.63
64460;BME280;50828;53.756;21.140;2023-07-09T06:36:50;100467.48;;;18.68;63.23
64460;BME280;50828;53.756;21.140;2023-07-09T06:41:59;100471.59;;;18.81;63.06
64460;BME280;50828;53.756;21.140;2023-07-09T06:47:23;100467.20;;;18.96;62.74
64460;BME280;50828;53.756;21.140;2023-07-09T06:52:31;100466.17;;;19.16;62.35
64460;BME280;50828;53.756;21.140;2023-07-09T06:57:38;100459.45;;;19.38;62.01
64460;BME280;50828;53.756;21.140;2023-07-09T07:02:46;100458.02;;;19.53;61.23
64460;BME280;50828;53.756;21.140;2023-07-09T07:07:53;100459.61;;;19.65;60.52
64460;BME280;50828;53.756;21.140;2023-07-09T07:13:01;100453.81;;;19.74;59.96
64460;BME280;50828;53.756;21.140;2023-07-09T07:18:09;100458.39;;;19.85;59.32
64460;BME280;50828;53.756;21.140;2023-07-09T07:23:16;100459.55;;;19.95;58.76
64460;BME280;50828;53.756;21.140;2023-07-09T07:28:24;100462.34;;;20.06;58.11
64460;BME280;50828;53.756;21.140;2023-07-09T07:33:31;100459.92;;;20.15;57.68
64460;BME280;50828;53.756;21.140;2023-07-09T07:38:39;100455.30;;;20.27;57.29
64460;BME280;50828;53.756;21.140;2023-07-09T07:43:46;100461.41;;;20.38;57.22
64460;BME280;50828;53.756;21.140;2023-07-09T07:48:54;100458.75;;;20.57;57.12
64460;BME280;50828;53.756;21.140;2023-07-09T07:54:02;100457.04;;;20.84;56.86
64460;BME280;50828;53.756;21.140;2023-07-09T07:59:10;100460.55;;;21.12;56.35
64460;BME280;50828;53.756;21.140;2023-07-09T08:04:17;100458.34;;;21.35;55.65
64460;BME280;50828;53.756;21.140;2023-07-09T08:09:25;100457.24;;;21.52;54.81
64460;BME280;50828;53.756;21.140;2023-07-09T08:14:33;100455.00;;;21.71;54.57
64460;BME280;50828;53.756;21.140;2023-07-09T08:19:49;100459.00;;;21.99;53.85
64460;BME280;50828;53.756;21.140;2023-07-09T08:24:56;100462.68;;;22.17;52.88
64460;BME280;50828;53.756;21.140;2023-07-09T08:30:05;100455.79;;;22.33;51.99
64460;BME280;50828;53.756;21.140;2023-07-09T08:35:13;100445.39;;;22.50;51.81
64460;BME280;50828;53.756;21.140;2023-07-09T08:40:25;100452.08;;;22.69;51.39
64460;BME280;50828;53.756;21.140;2023-07-09T08:45:38;100453.09;;;22.80;50.39
64460;BME280;50828;53.756;21.140;2023-07-09T08:50:53;100443.27;;;22.86;49.93
64460;BME280;50828;53.756;21.140;2023-07-09T08:56:01;100440.34;;;22.86;49.46
64460;BME280;50828;53.756;21.140;2023-07-09T09:01:19;100440.99;;;22.87;49.28
64460;BME280;50828;53.756;21.140;2023-07-09T09:06:30;100445.45;;;22.85;48.56
64460;BME280;50828;53.756;21.140;2023-07-09T09:11:44;100446.39;;;22.83;48.02
64460;BME280;50828;53.756;21.140;2023-07-09T09:16:53;100447.96;;;22.87;48.03
64460;BME280;50828;53.756;21.140;2023-07-09T09:22:04;100450.91;;;22.90;48.17
64460;BME280;50828;53.756;21.140;2023-07-09T09:27:14;100446.45;;;22.95;47.10
64460;BME280;50828;53.756;21.140;2023-07-09T09:32:25;100449.39;;;22.98;46.64
64460;BME280;50828;53.756;21.140;2023-07-09T09:37:34;100445.34;;;23.05;46.47
64460;BME280;50828;53.756;21.140;2023-07-09T09:42:42;100444.09;;;23.12;46.42
64460;BME280;50828;53.756;21.140;2023-07-09T09:47:50;100444.77;;;23.18;46.19
64460;BME280;50828;53.756;21.140;2023-07-09T09:52:58;100436.91;;;23.23;46.11
64460;BME280;50828;53.756;21.140;2023-07-09T09:58:15;100436.20;;;23.30;45.71
64460;BME280;50828;53.756;21.140;2023-07-09T10:03:32;100437.79;;;23.38;45.51
64460;BME280;50828;53.756;21.140;2023-07-09T10:08:49;100440.29;;;23.49;45.42
64460;BME280;50828;53.756;21.140;2023-07-09T10:14:03;100436.54;;;23.58;44.94
64460;BME280;50828;53.756;21.140;2023-07-09T10:19:22;100436.81;;;23.65;44.96
64460;BME280;50828;53.756;21.140;2023-07-09T10:24:42;100434.90;;;23.73;44.49
64460;BME280;50828;53.756;21.140;2023-07-09T10:30:08;100436.67;;;23.79;44.16
64460;BME280;50828;53.756;21.140;2023-07-09T10:35:32;100436.52;;;23.85;43.95
64460;BME280;50828;53.756;21.140;2023-07-09T10:40:45;100437.23;;;23.91;43.71
64460;BME280;50828;53.756;21.140;2023-07-09T10:45:56;100435.16;;;23.98;43.34
64460;BME280;50828;53.756;21.140;2023-07-09T10:51:04;100436.91;;;24.06;43.30
64460;BME280;50828;53.756;21.140;2023-07-09T10:56:19;100433.09;;;24.16;42.95
64460;BME280;50828;53.756;21.140;2023-07-09T11:01:31;100428.89;;;24.27;42.80
64460;BME280;50828;53.756;21.140;2023-07-09T11:06:43;100424.62;;;24.36;42.59
64460;BME280;50828;53.756;21.140;2023-07-09T11:11:55;100417.30;;;24.47;42.50
64460;BME280;50828;53.756;21.140;2023-07-09T11:17:07;100417.73;;;24.58;42.45
64460;BME280;50828;53.756;21.140;2023-07-09T11:22:22;100408.02;;;24.67;41.84
64460;BME280;50828;53.756;21.140;2023-07-09T11:27:30;100405.16;;;24.75;41.11
64460;BME280;50828;53.756;21.140;2023-07-09T11:32:47;100399.14;;;24.78;40.89
64460;BME280;50828;53.756;21.140;2023-07-09T11:37:55;100403.60;;;24.84;40.91
64460;BME280;50828;53.756;21.140;2023-07-09T11:43:04;100399.39;;;24.88;41.11
64460;BME280;50828;53.756;21.140;2023-07-09T11:48:20;100397.05;;;24.94;41.08
64460;BME280;50828;53.756;21.140;2023-07-09T11:53:37;100402.23;;;24.98;40.53
64460;BME280;50828;53.756;21.140;2023-07-09T11:58:55;100395.54;;;25.02;40.86
64460;BME280;50828;53.756;21.140;2023-07-09T12:04:04;100394.27;;;25.07;40.75
64460;BME280;50828;53.756;21.140;2023-07-09T12:09:15;100392.34;;;25.13;40.55
64460;BME280;50828;53.756;21.140;2023-07-09T12:14:23;100398.52;;;25.18;40.47
64460;BME280;50828;53.756;21.140;2023-07-09T12:19:33;100393.23;;;25.22;40.35
64460;BME280;50828;53.756;21.140;2023-07-09T12:24:43;100388.11;;;25.27;40.34
64460;BME280;50828;53.756;21.140;2023-07-09T12:29:53;100374.20;;;25.31;40.25
64460;BME280;50828;53.756;21.140;2023-07-09T12:35:00;100375.23;;;25.35;40.29
64460;BME280;50828;53.756;21.140;2023-07-09T12:40:14;100373.25;;;25.39;40.14
64460;BME280;50828;53.756;21.140;2023-07-09T12:45:23;100371.27;;;25.42;39.99
64460;BME280;50828;53.756;21.140;2023-07-09T12:50:32;100364.82;;;25.46;39.98
64460;BME280;50828;53.756;21.140;2023-07-09T12:55:42;100365.92;;;25.51;39.90
64460;BME280;50828;53.756;21.140;2023-07-09T13:00:53;100361.77;;;25.55;39.78
64460;BME280;50828;53.756;21.140;2023-07-09T13:06:02;100361.44;;;25.62;39.41
64460;BME280;50828;53.756;21.140;2023-07-09T13:11:17;100358.93;;;25.69;39.25
64460;BME280;50828;53.756;21.140;2023-07-09T13:16:25;100356.20;;;25.74;39.06
64460;BME280;50828;53.756;21.140;2023-07-09T13:21:39;100355.58;;;25.78;39.05
64460;BME280;50828;53.756;21.140;2023-07-09T13:26:47;100361.13;;;25.83;38.80
64460;BME280;50828;53.756;21.140;2023-07-09T13:31:55;100348.45;;;25.83;38.66
64460;BME280;50828;53.756;21.140;2023-07-09T13:37:04;100346.91;;;25.84;38.89
64460;BME280;50828;53.756;21.140;2023-07-09T13:42:16;100341.16;;;25.88;38.52
64460;BME280;50828;53.756;21.140;2023-07-09T13:47:24;100337.91;;;25.91;38.39
64460;BME280;50828;53.756;21.140;2023-07-09T13:52:32;100335.77;;;25.96;38.25
64460;BME280;50828;53.756;21.140;2023-07-09T13:57:41;100332.43;;;26.01;38.22
64460;BME280;50828;53.756;21.140;2023-07-09T14:02:50;100330.09;;;26.05;38.15
64460;BME280;50828;53.756;21.140;2023-07-09T14:07:58;100329.77;;;26.10;38.04
64460;BME280;50828;53.756;21.140;2023-07-09T14:13:07;100322.05;;;26.09;37.46
64460;BME280;50828;53.756;21.140;2023-07-09T14:18:20;100325.81;;;26.11;37.21
64460;BME280;50828;53.756;21.140;2023-07-09T14:23:28;100327.23;;;26.10;36.92
64460;BME280;50828;53.756;21.140;2023-07-09T14:28:36;100324.98;;;26.09;37.09
64460;BME280;50828;53.756;21.140;2023-07-09T14:33:45;100327.98;;;26.11;36.90
64460;BME280;50828;53.756;21.140;2023-07-09T14:38:52;100329.52;;;26.12;36.95
64460;BME280;50828;53.756;21.140;2023-07-09T14:44:00;100326.08;;;26.10;36.54
64460;BME280;50828;53.756;21.140;2023-07-09T14:49:08;100334.27;;;26.08;36.54
64460;BME280;50828;53.756;21.140;2023-07-09T14:54:22;100337.19;;;26.02;36.57
64460;BME280;50828;53.756;21.140;2023-07-09T14:59:30;100336.27;;;25.97;36.76
64460;BME280;50828;53.756;21.140;2023-07-09T15:04:38;100338.30;;;25.91;36.86
64460;BME280;50828;53.756;21.140;2023-07-09T15:09:45;100338.25;;;25.84;36.98
64460;BME280;50828;53.756;21.140;2023-07-09T15:14:53;100331.96;;;25.77;36.85
64460;BME280;50828;53.756;21.140;2023-07-09T15:20:03;100328.71;;;25.70;37.13
64460;BME280;50828;53.756;21.140;2023-07-09T15:25:14;100332.33;;;25.64;37.59
64460;BME280;50828;53.756;21.140;2023-07-09T15:30:23;100333.52;;;25.59;37.85
64460;BME280;50828;53.756;21.140;2023-07-09T15:35:33;100335.70;;;25.52;37.69
64460;BME280;50828;53.756;21.140;2023-07-09T15:40:42;100340.92;;;25.47;37.72
64460;BME280;50828;53.756;21.140;2023-07-09T15:45:51;100329.21;;;25.37;37.73
64460;BME280;50828;53.756;21.140;2023-07-09T15:50:59;100326.47;;;25.29;37.92
64460;BME280;50828;53.756;21.140;2023-07-09T15:56:22;100328.15;;;25.26;38.13
64460;BME280;50828;53.756;21.140;2023-07-09T16:01:32;100324.42;;;25.23;38.14
64460;BME280;50828;53.756;21.140;2023-07-09T16:06:41;100322.45;;;25.23;38.51
64460;BME280;50828;53.756;21.140;2023-07-09T16:11:50;100324.75;;;25.24;38.60
64460;BME280;50828;53.756;21.140;2023-07-09T16:17:00;100326.13;;;25.23;38.83
64460;BME280;50828;53.756;21.140;2023-07-09T16:22:09;100328.75;;;25.20;39.08
64460;BME280;50828;53.756;21.140;2023-07-09T16:27:18;100323.67;;;25.17;39.31
64460;BME280;50828;53.756;21.140;2023-07-09T16:32:26;100321.93;;;25.12;39.05
64460;BME280;50828;53.756;21.140;2023-07-09T16:37:33;100313.23;;;25.07;39.05
64460;BME280;50828;53.756;21.140;2023-07-09T16:42:41;100311.46;;;25.01;39.34
64460;BME280;50828;53.756;21.140;2023-07-09T16:47:49;100310.52;;;24.98;39.75
64460;BME280;50828;53.756;21.140;2023-07-09T16:52:57;100314.02;;;24.98;40.05
64460;BME280;50828;53.756;21.140;2023-07-09T16:58:04;100316.59;;;24.95;40.28
64460;BME280;50828;53.756;21.140;2023-07-09T17:03:13;100315.42;;;24.92;40.69
64460;BME280;50828;53.756;21.140;2023-07-09T17:08:22;100313.12;;;24.90;40.88
64460;BME280;50828;53.756;21.140;2023-07-09T17:13:32;100316.59;;;24.89;40.73
64460;BME280;50828;53.756;21.140;2023-07-09T17:18:39;100315.19;;;24.87;40.48
64460;BME280;50828;53.756;21.140;2023-07-09T17:23:47;100319.23;;;24.84;40.62
64460;BME280;50828;53.756;21.140;2023-07-09T17:28:54;100323.23;;;24.81;40.66
64460;BME280;50828;53.756;21.140;2023-07-09T17:34:02;100325.17;;;24.77;40.66
64460;BME280;50828;53.756;21.140;2023-07-09T17:39:20;100327.53;;;24.73;40.75
64460;BME280;50828;53.756;21.140;2023-07-09T17:44:28;100323.66;;;24.68;41.01
64460;BME280;50828;53.756;21.140;2023-07-09T17:49:36;100328.48;;;24.63;40.87
64460;BME280;50828;53.756;21.140;2023-07-09T17:54:43;100327.80;;;24.57;41.06
64460;BME280;50828;53.756;21.140;2023-07-09T17:59:52;100325.41;;;24.50;41.05
64460;BME280;50828;53.756;21.140;2023-07-09T18:05:01;100320.93;;;24.42;41.34
64460;BME280;50828;53.756;21.140;2023-07-09T18:10:10;100319.46;;;24.33;41.31
64460;BME280;50828;53.756;21.140;2023-07-09T18:15:25;100322.27;;;24.26;41.36
64460;BME280;50828;53.756;21.140;2023-07-09T18:20:33;100322.00;;;24.16;41.80
64460;BME280;50828;53.756;21.140;2023-07-09T18:25:42;100323.52;;;24.09;42.27
64460;BME280;50828;53.756;21.140;2023-07-09T18:30:50;100322.21;;;24.00;42.53
64460;BME280;50828;53.756;21.140;2023-07-09T18:36:17;100322.92;;;23.88;42.90
64460;BME280;50828;53.756;21.140;2023-07-09T18:41:31;100323.69;;;23.78;43.19
64460;BME280;50828;53.756;21.140;2023-07-09T18:46:39;100324.70;;;23.67;43.73
64460;BME280;50828;53.756;21.140;2023-07-09T18:51:46;100318.60;;;23.55;44.13
64460;BME280;50828;53.756;21.140;2023-07-09T18:56:54;100318.19;;;23.44;44.49
64460;BME280;50828;53.756;21.140;2023-07-09T19:02:01;100320.27;;;23.32;45.07
64460;BME280;50828;53.756;21.140;2023-07-09T19:07:12;100316.89;;;23.18;45.31
64460;BME280;50828;53.756;21.140;2023-07-09T19:12:18;100317.84;;;23.03;45.31
64460;BME280;50828;53.756;21.140;2023-07-09T19:17:30;100319.11;;;22.93;45.62
64460;BME280;50828;53.756;21.140;2023-07-09T19:22:35;100315.45;;;22.79;45.39
64460;BME280;50828;53.756;21.140;2023-07-09T19:27:43;100321.45;;;22.66;45.42
64460;BME280;50828;53.756;21.140;2023-07-09T19:32:53;100290.63;;;22.29;45.54
64460;BME280;50828;53.756;21.140;2023-07-09T19:38:02;100325.59;;;22.31;45.71
64460;BME280;50828;53.756;21.140;2023-07-09T19:43:12;100329.61;;;22.13;46.01
64460;BME280;50828;53.756;21.140;2023-07-09T19:48:23;100325.11;;;21.90;46.10
64460;BME280;50828;53.756;21.140;2023-07-09T19:53:33;100319.02;;;21.68;46.11
64460;BME280;50828;53.756;21.140;2023-07-09T19:58:40;100314.23;;;21.46;46.17
64460;BME280;50828;53.756;21.140;2023-07-09T20:03:48;100318.30;;;21.26;46.64
64460;BME280;50828;53.756;21.140;2023-07-09T20:08:56;100312.58;;;21.04;46.85
64460;BME280;50828;53.756;21.140;2023-07-09T20:14:07;100283.84;;;20.72;46.86
64460;BME280;50828;53.756;21.140;2023-07-09T20:19:16;100305.23;;;20.61;47.20
64460;BME280;50828;53.756;21.140;2023-07-09T20:24:25;100309.44;;;20.40;47.43
64460;BME280;50828;53.756;21.140;2023-07-09T20:29:33;100313.70;;;20.19;47.63
64460;BME280;50828;53.756;21.140;2023-07-09T20:34:41;100316.56;;;20.01;48.05
64460;BME280;50828;53.756;21.140;2023-07-09T20:39:48;100312.90;;;19.81;48.81
64460;BME280;50828;53.756;21.140;2023-07-09T20:44:56;100311.52;;;19.60;48.94
64460;BME280;50828;53.756;21.140;2023-07-09T20:50:11;100315.98;;;19.41;49.30
64460;BME280;50828;53.756;21.140;2023-07-09T20:55:20;100319.94;;;19.24;49.48
64460;BME280;50828;53.756;21.140;2023-07-09T21:00:27;100325.33;;;19.09;50.35
64460;BME280;50828;53.756;21.140;2023-07-09T21:05:34;100326.37;;;18.94;50.76
64460;BME280;50828;53.756;21.140;2023-07-09T21:10:43;100322.95;;;18.81;51.31
64460;BME280;50828;53.756;21.140;2023-07-09T21:15:54;100325.05;;;18.69;51.55
64460;BME280;50828;53.756;21.140;2023-07-09T21:21:02;100329.98;;;18.55;51.45
64460;BME280;50828;53.756;21.140;2023-07-09T21:26:15;100328.44;;;18.41;51.25
64460;BME280;50828;53.756;21.140;2023-07-09T21:31:26;100335.52;;;18.29;51.47
64460;BME280;50828;53.756;21.140;2023-07-09T21:36:33;100341.13;;;18.15;51.40
64460;BME280;50828;53.756;21.140;2023-07-09T21:41:41;100337.26;;;18.01;51.21
64460;BME280;50828;53.756;21.140;2023-07-09T21:46:50;100337.60;;;17.88;51.59
64460;BME280;50828;53.756;21.140;2023-07-09T21:51:59;100340.26;;;17.74;51.67
64460;BME280;50828;53.756;21.140;2023-07-09T21:57:07;100344.51;;;17.61;51.89
64460;BME280;50828;53.756;21.140;2023-07-09T22:02:18;100345.10;;;17.49;52.03
64460;BME280;50828;53.756;21.140;2023-07-09T22:07:25;100339.04;;;17.36;52.09
64460;BME280;50828;53.756;21.140;2023-07-09T22:12:36;100341.40;;;17.24;52.50
64460;BME280;50828;53.756;21.140;2023-07-09T22:17:45;100343.63;;;17.11;52.39
64460;BME280;50828;53.756;21.140;2023-07-09T22:22:52;100348.19;;;16.98;52.49
64460;BME280;50828;53.756;21.140;2023-07-09T22:28:00;100351.08;;;16.86;52.50
64460;BME280;50828;53.756;21.140;2023-07-09T22:33:07;100352.98;;;16.75;52.58
64460;BME280;50828;53.756;21.140;2023-07-09T22:38:20;100350.98;;;16.61;52.98
64460;BME280;50828;53.756;21.140;2023-07-09T22:43:28;100348.58;;;16.51;53.29
64460;BME280;50828;53.756;21.140;2023-07-09T22:48:35;100348.17;;;16.40;53.35
64460;BME280;50828;53.756;21.140;2023-07-09T22:53:43;100351.91;;;16.28;53.27
64460;BME280;50828;53.756;21.140;2023-07-09T22:58:51;100360.48;;;16.19;53.60
64460;BME280;50828;53.756;21.140;2023-07-09T23:03:58;100356.31;;;16.08;54.23
64460;BME280;50828;53.756;21.140;2023-07-09T23:09:06;100350.42;;;15.97;53.69
64460;BME280;50828;53.756;21.140;2023-07-09T23:14:19;100346.92;;;15.84;53.74
64460;BME280;50828;53.756;21.140;2023-07-09T23:19:30;100340.38;;;15.73;53.66
64460;BME280;50828;53.756;21.140;2023-07-09T23:24:38;100338.34;;;15.62;53.75
64460;BME280;50828;53.756;21.140;2023-07-09T23:29:46;100334.45;;;15.50;53.92
64460;BME280;50828;53.756;21.140;2023-07-09T23:34:53;100339.30;;;15.40;54.19
64460;BME280;50828;53.756;21.140;2023-07-09T23:40:01;100343.55;;;15.31;55.20
64460;BME280;50828;53.756;21.140;2023-07-09T23:45:13;100345.66;;;15.21;55.37
64460;BME280;50828;53.756;21.140;2023-07-09T23:50:22;100333.66;;;15.10;55.53
64460;BME280;50828;53.756;21.140;2023-07-09T23:55:30;100335.12;;;15.00;55.38
